x

New Dungeness - 17 Nm Ne Of Port Angeles, Wa (46088) Wave Buoy

8:50 - Sat 19th Aug 2017 All times are PDT. -7 hours from GMT.

  • Sig Wave height 1.3ft
  • Swell Direction
  • Peak Period 5s
  • Average Period 4s
  • Wind
    7mph, 9mph gusts
  • Sea Temp 52°f
  • Luft Temp 54°f
  • Sea Pressure 1022.2mb
  • New Dungeness - 17 Nm Ne Of Port Angeles, Wa
  • New Dungeness - 17 Nm Ne Of Port Angeles, Wa

More Historic Weather Station data

Upgrade to MSW Pro to gain access to the past 30 days of data for over 8000 Wavebouys and Weather Stations around the globe.

Join

Comparision Forecast

View Surf forecast
   
Sa 08/19 8:50 1.3ft 5s 4s 7 9 mph 1022.2mb 52f 54f
8:20 1.3ft 5s 4s 7 7 mph 1022.1mb 52f 55f
7:50 1ft 5s 4s 9 11 mph 1021.8mb 52f 55f
7:20 1ft 5s 4s 11 13 mph 1021.6mb 52f 55f
6:50 1ft 5s 4s 11 13 mph 1021.5mb 52f 55f
6:20 1.3ft 5s 4s 13 18 mph 1021.1mb 52f 55f
5:50 1.3ft 5s 4s 16 20 mph 1020.9mb 52f 55f
5:20 1.6ft 4s 4s 16 22 mph 1020.7mb 52f 55f
4:50 1.6ft 4s 4s 16 20 mph 1020.5mb 52f 55f
4:20 1.6ft 4s 4s 18 22 mph 1020.4mb 52f 55f
3:50 2ft 4s 4s 18 20 mph 1020.1mb 52f 55f
3:20 2.5ft 4s 3s 18 22 mph 1020mb 52f 55f
2:50 2ft 4s 3s 18 22 mph 1020mb 52f 55f
2:20 2.5ft 4s 4s 18 25 mph 1020.1mb 52f 55f
1:50 2.5ft 4s 3s 20 22 mph 1020mb 52f 55f
1:20 2.5ft 4s 3s 20 25 mph 1020mb 52f 55f
12:50 2.5ft 4s 4s 20 22 mph 1020.1mb 52f 55f
12:20 3ft 4s 4s 22 25 mph 1019.9mb 52f 55f
Fr 08/18 11:50 3.5ft 4s 4s 22 27 mph 1019.9mb 52f 55f
11:20 3.5ft 4s 4s 22 27 mph 1019.7mb 52f 56f
10:50 3ft 4s 4s 25 29 mph 1019.5mb 52f 56f
10:20 2.5ft 4s 4s 25 31 mph 1019.5mb 52f 56f
9:50 2.5ft 4s 4s 20 25 mph 1019.4mb 52f 58f
9:20 2.5ft 4s 4s 20 22 mph 1019.3mb 53f 58f
8:50 2.5ft 4s 4s 16 18 mph 1019.2mb 53f 58f
8:20 2.5ft 4s 4s 22 25 mph 1018.8mb 53f 59f
7:50 2ft 4s 3s 20 25 mph 1018.7mb 53f 60f
7:20 1.6ft 3s 3s 22 25 mph 1018.5mb 53f 60f
6:50 2ft 4s 3s 18 20 mph 1018.8mb 53f 59f
6:20 2ft 4s 3s 13 16 mph 1018.9mb 53f 57f
5:50 2ft 4s 3s 18 22 mph 1019.1mb 53f 57f
5:20 2ft 3s 3s 20 25 mph 1019mb 53f 58f
4:50 2.5ft 3s 3s 22 25 mph 1019.1mb 53f 59f
4:20 2.5ft 3s 3s 25 27 mph 1019.1mb 53f 60f
3:20 2.5ft 3s 3s 25 29 mph 1018.9mb 52f 61f
2:50 1.6ft 3s 3s 20 22 mph 1019.4mb 53f 60f
2:20 2ft 3s 3s 16 20 mph 1019.8mb 53f 60f
1:50 2ft 3s 3s 11 13 mph 1020.1mb 53f 60f
1:20 1.6ft 3s 3s 13 16 mph 1019.9mb 53f 59f
12:50 2ft 3s 3s 20 29 mph 1019.8mb 53f 61f
12:20 2.5ft 4s 4s 20 27 mph 1019.8mb 53f 61f
11:50 2.5ft 4s 4s 22 27 mph 1019.9mb 53f 60f
11:20 2.5ft 9s 5s 11 16 mph 1020.2mb 53f 59f
10:50 2.5ft 8s 5s 11 13 mph 1020.3mb 53f 56f
10:20 2.5ft 5s 5s 20 22 mph 1019.8mb 53f 57f
9:50 3ft 8s 5s 18 20 mph 1019.9mb 53f 55f
9:20 2.5ft 5s 4s 16 18 mph 1019.7mb 52f 56f
8:50 2.5ft 6s 4s 13 16 mph 1020.1mb 52f 55f
8:20 3ft 5s 5s 16 20 mph 1020mb 52f 55f
7:50 2.5ft 6s 4s 16 18 mph 1020.1mb 52f 55f
7:20 2.5ft 6s 5s 20 22 mph 1019.7mb 52f 56f
6:50 2.5ft 6s 5s 20 25 mph 1019.4mb 52f 55f
6:20 2.5ft 6s 5s 20 25 mph 1019.3mb 52f 55f
5:50 2.5ft 6s 5s 18 22 mph 1019.4mb 52f 55f
5:20 2.5ft 6s 5s 18 22 mph 1019.2mb 52f 56f
4:50 3ft 5s 4s 20 25 mph 1019mb 52f 55f
4:20 3ft 5s 4s 20 22 mph 1018.9mb 52f 55f
3:50 2.5ft 5s 4s 20 25 mph 1018.8mb 52f 55f
3:20 2.5ft 4s 4s 18 22 mph 1018.9mb 52f 56f
2:50 2.5ft 5s 4s 20 25 mph 1018.7mb 53f 55f
2:20 2.5ft 4s 4s 20 22 mph 1018.9mb 53f 55f
1:50 2ft 4s 3s 20 25 mph 1019mb 53f 55f
1:20 2ft 4s 3s 22 29 mph 1019.1mb 53f 55f
12:50 2.5ft 4s 4s 20 25 mph 1019.2mb 52f 55f
12:20 2.5ft 5s 4s 25 27 mph 1019.1mb 53f 55f
Do 08/17 11:50 3ft 4s 4s 25 31 mph 1019.4mb 53f 56f
11:20 3ft 4s 4s 25 29 mph 1019.4mb 53f 56f
10:50 2.5ft 4s 4s 25 31 mph 1019.4mb 53f 56f
10:20 2.5ft 4s 3s 22 27 mph 1019.5mb 52f 56f
9:50 2.5ft 4s 4s 20 22 mph 1019.7mb 53f 56f
9:20 2.5ft 4s 4s 20 22 mph 1019.6mb 52f 56f
8:50 2.5ft 5s 4s 22 25 mph 1019.2mb 53f 57f
8:20 2.5ft 4s 4s 20 25 mph 1019.4mb 53f 57f
7:50 2.5ft 4s 4s 20 25 mph 1019.2mb 53f 57f
7:20 2ft 4s 3s 18 22 mph 1019.3mb 53f 57f
6:50 1.6ft 4s 3s 16 18 mph 1019.4mb 53f 57f
6:20 1.6ft 3s 3s 16 18 mph 1019.6mb 53f 57f
5:50 1.3ft 3s 3s 18 20 mph 1019.7mb 53f 56f
5:20 1.3ft 3s 3s 16 16 mph 1020mb 52f 56f
4:50 1.3ft 3s 3s 16 18 mph 1020.3mb 53f 56f
4:20 1ft 3s 3s 13 16 mph 1020.5mb 53f 56f
3:50 1.3ft 3s 3s 13 16 mph 1020.8mb 53f 57f
3:20 1.3ft 3s 3s 16 16 mph 1020.9mb 54f 58f
2:50 1.3ft 3s 3s 13 13 mph 1021mb 54f 58f
2:20 1.3ft 3s 3s 13 13 mph 1021.2mb 53f 58f
1:50 1.3ft 3s 3s 11 13 mph 1021.4mb 54f 57f
1:20 1ft 3s 3s 11 13 mph 1021.5mb 54f 57f
12:50 1.6ft 3s 3s 9 11 mph 1021.6mb 54f 56f
12:20 2ft 3s 4s 9 11 mph 1021.7mb 54f 56f
11:50 2ft 4s 4s 11 11 mph 1021.6mb 54f 55f
11:20 2.5ft 4s 4s 9 11 mph 1021.4mb 54f 55f
10:50 2.5ft 4s 4s 11 13 mph 1021.3mb 54f 56f
10:20 3ft 8s 5s 11 13 mph 1021.3mb 53f 55f
9:50 3ft 8s 5s 11 11 mph 1021.1mb 54f 55f
9:20 2.5ft 8s 5s 11 13 mph 1021.2mb 54f 56f
8:50 2.5ft 5s 5s 11 13 mph 1021.1mb 53f 56f
8:20 2ft 5s 4s 11 13 mph 1021mb 52f 56f
7:50 1.6ft 5s 4s 13 16 mph 1020.8mb 52f 55f
7:20 2ft 5s 4s 13 18 mph 1020.5mb 52f 55f
6:50 2ft 5s 4s 16 20 mph 1020.1mb 52f 55f
6:20 2ft 5s 4s 18 20 mph 1019.8mb 52f 55f
5:50 1.6ft 5s 4s 16 18 mph 1019.7mb 52f 55f
5:20 1.3ft 5s 4s 16 20 mph 1019.5mb 52f 55f
4:50 1.6ft 5s 4s 16 20 mph 1019.4mb 52f 56f
4:20 1.6ft 5s 4s 16 18 mph 1019mb 52f 56f
3:50 2ft 5s 4s 18 22 mph 1018.8mb 52f 56f
3:20 2ft 5s 4s 16 20 mph 1018.9mb 52f 56f
2:50 2ft 4s 4s 16 20 mph 1018.7mb 53f 55f
2:20 2ft 4s 4s 18 20 mph 1018.5mb 53f 56f
1:50 2.5ft 5s 4s 16 20 mph 1018.5mb 53f 55f
1:20 2.5ft 4s 4s 18 22 mph 1018.3mb 53f 56f
12:50 2ft 4s 4s 16 20 mph 1018.2mb 53f 55f
12:20 2ft 4s 3s 16 18 mph 1018.2mb 53f 55f
Mi 08/16 11:50 2.5ft 4s 3s 18 20 mph 1018mb 53f 55f
11:20 2.5ft 4s 3s 20 22 mph 1017.9mb 53f 54f
10:50 2.5ft 4s 3s 18 22 mph 1017.9mb 53f 54f
10:20 2.5ft 4s 3s 18 20 mph 1017.7mb 53f 54f
9:50 2.5ft 4s 4s 18 20 mph 1017.5mb 53f 55f
9:20 2.5ft 4s 3s 18 22 mph 1017.3mb 53f 55f
8:50 2.5ft 4s 3s 20 22 mph 1017.2mb 53f 57f
8:20 2ft 4s 3s 16 18 mph 1016.9mb 53f 57f
7:50 2.5ft 4s 3s 13 16 mph 1016.9mb 53f 57f
7:20 2ft 3s 3s 18 20 mph 1016.8mb 53f 61f
6:50 2.5ft 3s 3s 18 20 mph 1016.6mb 53f 60f
6:20 2.5ft 4s 3s 18 22 mph 1016.3mb 53f 61f
5:50 2.5ft 4s 4s 22 25 mph 1016.2mb 53f 62f
5:20 2.5ft 4s 4s 25 29 mph 1016.2mb 53f 62f
4:50 2.5ft 4s 4s 27 31 mph 1016.3mb 53f 62f
4:20 2.5ft 4s 4s 20 22 mph 1016.9mb 53f 61f
3:50 2ft 3s 3s 18 22 mph 1017.3mb 53f 61f
3:20 2ft 4s 3s 20 22 mph 1017.4mb 53f 60f
2:50 1.3ft 3s 3s 20 22 mph 1017.6mb 53f 60f
2:20 1ft 3s 3s 13 16 mph 1018.2mb 53f 57f
1:50 1ft 3s 3s 13 16 mph 1018.5mb 53f 56f
1:20 1.3ft 3s 3s 13 16 mph 1018.5mb 53f 56f
12:50 1.3ft 3s 3s 16 18 mph 1018.4mb 53f 56f
12:20 1.6ft 3s 3s 13 16 mph 1018.5mb 53f 55f
11:50 2ft 3s 3s 16 18 mph 1018.3mb 53f 56f
11:20 2ft 4s 3s 18 20 mph 1018.1mb 53f 56f
10:50 2ft 3s 3s 20 22 mph 1018.1mb 53f 56f
10:20 2.5ft 4s 3s 20 25 mph 1017.9mb 53f 56f
9:50 2.5ft 4s 4s 16 20 mph 1018mb 54f 55f
9:20 2.5ft 4s 4s 16 20 mph 1017.9mb 54f 55f
8:50 2.5ft 4s 4s 13 18 mph 1017.9mb 53f 55f
8:20 2.5ft 5s 4s 18 22 mph 1017.8mb 53f 56f
7:50 2.5ft 5s 4s 13 18 mph 1017.7mb 53f 54f
7:20 2.5ft 5s 4s 11 13 mph 1017.3mb 53f 55f
6:50 2.5ft 6s 5s 13 16 mph 1017.1mb 53f 56f
6:20 2.5ft 5s 4s 16 20 mph 1016.8mb 52f 56f
5:50 2ft 5s 4s 20 22 mph 1016.6mb 52f 56f
5:20 2ft 6s 4s 18 22 mph 1016.6mb 52f 55f
4:50 2ft 6s 4s 18 25 mph 1016.6mb 52f 56f
4:20 2ft 5s 4s 20 25 mph 1016.4mb 52f 56f
3:50 2ft 6s 4s 18 22 mph 1016.4mb 53f 56f
3:20 1.6ft 5s 4s 16 20 mph 1016.1mb 53f 56f
2:50 2.5ft 5s 4s 18 22 mph 1016mb 53f 56f
2:20 2.5ft 4s 4s 20 25 mph 1015.8mb 53f 56f
1:50 2.5ft 5s 4s 22 27 mph 1015.4mb 53f 56f
1:20 2.5ft 4s 4s 20 25 mph 1015.4mb 53f 56f
12:50 2.5ft 4s 4s 20 25 mph 1015.3mb 53f 56f
12:20 2.5ft 4s 4s 22 27 mph 1015.2mb 53f 56f
Di 08/15 11:50 2.5ft 4s 4s 25 29 mph 1015.1mb 53f 56f
11:20 2.5ft 4s 4s 22 27 mph 1015.2mb 53f 56f
10:50 2.5ft 4s 3s 25 27 mph 1014.9mb 53f 56f
10:20 2.5ft 4s 3s 22 27 mph 1014.7mb 53f 56f
9:50 2.5ft 4s 3s 22 27 mph 1014.6mb 53f 55f
9:20 2.5ft 4s 3s 25 27 mph 1014.5mb 53f 55f
8:50 2.5ft 4s 3s 22 27 mph 1014.3mb 53f 55f
8:20 2.5ft 4s 3s 22 29 mph 1014.2mb 53f 56f
7:50 2ft 4s 3s 22 27 mph 1013.7mb 53f 56f
7:20 2.5ft 3s 3s 20 25 mph 1013.8mb 54f 56f
6:50 2ft 3s 3s 20 22 mph 1013.8mb 54f 56f
6:20 1.6ft 3s 3s 18 20 mph 1013.9mb 54f 55f
5:50 1.3ft 3s 3s 16 18 mph 1014.2mb 54f 53f
5:20 1ft 3s 3s 16 18 mph 1014.4mb 54f 54f